createdAt,value
2018-05-06T00:01:41.706Z,8.87
2018-05-06T00:04:10.758Z,9.27
2018-05-06T00:06:39.012Z,8.43
2018-05-06T00:09:07.329Z,10.00
2018-05-06T00:11:35.858Z,8.77
2018-05-06T00:14:04.142Z,8.20
2018-05-06T00:16:32.405Z,7.80
2018-05-06T00:19:00.702Z,8.97
2018-05-06T00:21:28.990Z,7.90
2018-05-06T00:23:57.265Z,7.50
2018-05-06T00:26:25.534Z,8.03
2018-05-06T00:28:53.814Z,7.27
2018-05-06T00:31:22.070Z,7.87
2018-05-06T00:33:50.351Z,7.17
2018-05-06T00:36:18.619Z,6.83
2018-05-06T00:38:47.672Z,7.00
2018-05-06T00:41:15.940Z,6.60
2018-05-06T00:43:44.213Z,6.17
2018-05-06T00:46:12.462Z,7.97
2018-05-06T00:48:40.742Z,6.83
2018-05-06T00:51:09.012Z,6.27
2018-05-06T00:53:37.299Z,5.43
2018-05-06T00:56:05.555Z,7.03
2018-05-06T00:58:34.593Z,6.60
2018-05-06T01:01:02.888Z,9.03
2018-05-06T01:03:31.145Z,8.60
2018-05-06T01:06:00.241Z,7.90
2018-05-06T01:08:28.611Z,9.23
2018-05-06T01:10:56.892Z,8.00
2018-05-06T01:13:25.160Z,7.33
2018-05-06T01:15:53.440Z,6.27
2018-05-06T01:18:21.693Z,9.60
2018-05-06T01:20:49.968Z,6.17
2018-05-06T01:23:18.993Z,7.27
2018-05-06T01:25:47.275Z,5.70
2018-05-06T01:28:15.528Z,7.30
2018-05-06T01:30:43.823Z,5.73
2018-05-06T01:33:12.076Z,7.10
2018-05-06T01:35:40.378Z,6.00
2018-05-06T01:38:09.697Z,7.40
2018-05-06T01:40:37.978Z,6.50
2018-05-06T01:43:06.280Z,5.97
2018-05-06T01:45:34.563Z,5.87
2018-05-06T01:48:02.850Z,6.23
2018-05-06T01:50:31.185Z,9.30
2018-05-06T01:52:59.437Z,5.00
2018-05-06T01:55:27.743Z,6.60
2018-05-06T01:57:56.049Z,6.73
2018-05-06T02:00:24.322Z,7.93
2018-05-06T02:02:52.596Z,6.83
2018-05-06T02:05:20.875Z,6.93
2018-05-06T02:07:50.896Z,6.30
2018-05-06T02:10:19.197Z,8.13
2018-05-06T02:12:48.236Z,7.67
2018-05-06T02:15:16.531Z,8.90
2018-05-06T02:17:44.812Z,8.33
2018-05-06T02:20:13.088Z,8.13
2018-05-06T02:22:41.373Z,10.80
2018-05-06T02:25:09.668Z,7.30
2018-05-06T02:27:37.930Z,8.37
2018-05-06T02:30:06.182Z,9.30
2018-05-06T02:32:34.470Z,8.57
2018-05-06T02:35:02.723Z,7.90
2018-05-06T02:37:31.026Z,7.70
2018-05-06T02:39:59.322Z,8.03
2018-05-06T02:42:27.586Z,7.97
2018-05-06T02:44:55.849Z,8.63
2018-05-06T02:47:24.136Z,8.07
2018-05-06T02:49:52.399Z,8.60
2018-05-06T02:52:20.677Z,9.07
2018-05-06T02:54:48.938Z,10.87
2018-05-06T02:57:17.225Z,8.47
2018-05-06T02:59:45.490Z,8.10
2018-05-06T03:02:13.783Z,6.93
2018-05-06T03:04:42.053Z,8.40
2018-05-06T03:07:10.336Z,6.77
2018-05-06T03:09:38.577Z,6.73
2018-05-06T03:12:07.625Z,7.40
2018-05-06T03:14:35.861Z,6.77
2018-05-06T03:17:04.162Z,7.87
2018-05-06T03:19:32.420Z,7.63
2018-05-06T03:22:00.708Z,8.73
2018-05-06T03:24:28.956Z,8.30
2018-05-06T03:26:57.255Z,9.97
2018-05-06T03:29:26.338Z,7.60
2018-05-06T03:31:55.403Z,6.63
2018-05-06T03:34:23.658Z,7.40
2018-05-06T03:36:51.937Z,8.43
2018-05-06T03:39:21.050Z,7.93
2018-05-06T03:41:49.334Z,7.37
2018-05-06T03:44:17.590Z,7.43
2018-05-06T03:46:45.864Z,7.60
2018-05-06T03:49:14.119Z,8.00
2018-05-06T03:51:43.158Z,8.10
2018-05-06T03:54:11.418Z,7.57
2018-05-06T03:57:00.366Z,9.10
2018-05-06T03:59:40.288Z,8.33
2018-05-06T04:15:48.213Z,5.43
2018-05-06T04:18:17.382Z,6.10
2018-05-06T04:20:45.615Z,6.20
2018-05-06T04:23:13.857Z,6.30
2018-05-06T04:25:42.139Z,6.07
2018-05-06T04:28:10.391Z,9.67
2018-05-06T04:30:39.442Z,6.10
2018-05-06T04:33:07.692Z,6.33
2018-05-06T04:35:35.967Z,7.60
2018-05-06T04:38:04.247Z,6.70
2018-05-06T04:40:32.552Z,7.20
2018-05-06T04:43:00.802Z,6.60
2018-05-06T04:45:29.043Z,6.67
2018-05-06T04:47:57.326Z,7.00
2018-05-06T04:50:26.350Z,6.13
2018-05-06T04:52:54.626Z,6.00
2018-05-06T04:55:22.891Z,5.13
2018-05-06T04:57:51.925Z,6.90
2018-05-06T05:00:20.172Z,8.83
2018-05-06T05:02:48.437Z,6.53
2018-05-06T05:05:16.759Z,5.90
2018-05-06T05:07:45.034Z,6.30
2018-05-06T05:10:13.283Z,6.87
2018-05-06T05:12:41.534Z,5.80
2018-05-06T05:15:10.602Z,6.90
2018-05-06T05:17:38.863Z,6.20
2018-05-06T05:20:07.149Z,6.10
2018-05-06T05:22:35.410Z,5.93
2018-05-06T05:25:03.708Z,5.73
2018-05-06T05:27:31.994Z,6.20
2018-05-06T05:30:00.304Z,7.23
2018-05-06T05:32:29.344Z,10.10
2018-05-06T05:34:57.606Z,7.20
2018-05-06T05:37:25.882Z,7.23
2018-05-06T05:39:54.163Z,6.87
2018-05-06T05:42:22.438Z,6.37
2018-05-06T05:44:50.696Z,7.17
2018-05-06T05:47:19.744Z,7.40
2018-05-06T05:49:47.999Z,6.40
2018-05-06T05:52:18.443Z,8.13
2018-05-06T05:54:47.627Z,7.40
2018-05-06T05:57:15.954Z,7.77
2018-05-06T05:59:44.203Z,6.70
2018-05-06T06:02:12.475Z,7.47
2018-05-06T06:04:44.345Z,10.37
2018-05-06T06:07:12.659Z,7.60
2018-05-06T06:09:41.004Z,7.10
2018-05-06T06:12:09.208Z,7.90
2018-05-06T06:14:37.493Z,7.60
2018-05-06T06:17:06.534Z,7.33
2018-05-06T06:19:34.816Z,8.03
2018-05-06T06:22:03.091Z,8.90
2018-05-06T06:24:31.397Z,7.40
2018-05-06T06:26:59.665Z,7.77
2018-05-06T06:29:27.958Z,10.40
2018-05-06T06:31:56.269Z,7.10
2018-05-06T06:34:25.323Z,7.73
2018-05-06T06:36:53.614Z,9.40
2018-05-06T06:39:21.872Z,8.20
2018-05-06T06:41:50.217Z,8.13
2018-05-06T06:44:18.486Z,8.57
2018-05-06T06:46:46.817Z,9.00
2018-05-06T06:49:15.086Z,8.17
2018-05-06T06:51:43.420Z,7.77
2018-05-06T06:54:11.715Z,8.50
2018-05-06T06:56:39.979Z,9.07
2018-05-06T06:59:09.062Z,8.63
2018-05-06T07:01:38.100Z,7.80
2018-05-06T07:04:06.395Z,8.80
2018-05-06T07:06:34.656Z,8.73
2018-05-06T07:09:02.963Z,10.37
2018-05-06T07:11:31.239Z,7.67
2018-05-06T07:13:59.535Z,7.83
2018-05-06T07:16:27.790Z,7.20
2018-05-06T07:18:56.109Z,7.23
2018-05-06T07:21:24.373Z,7.60
2018-05-06T07:23:53.404Z,7.50
2018-05-06T07:26:21.706Z,7.50
2018-05-06T07:28:50.679Z,7.60
2018-05-06T07:31:18.992Z,8.03
2018-05-06T07:33:48.731Z,8.33
2018-05-06T07:36:17.783Z,8.07
2018-05-06T07:38:46.062Z,7.57
2018-05-06T07:41:14.342Z,9.07
2018-05-06T07:43:42.601Z,8.50
2018-05-06T07:46:11.677Z,7.93
2018-05-06T07:48:39.939Z,8.40
2018-05-06T07:51:10.482Z,7.77
2018-05-06T07:53:38.786Z,7.10
2018-05-06T07:56:07.037Z,6.50
2018-05-06T07:58:35.333Z,7.67
2018-05-06T08:01:03.583Z,7.63
2018-05-06T08:03:32.626Z,8.10
2018-05-06T08:06:00.915Z,6.67
2018-05-06T08:08:29.202Z,5.83
2018-05-06T08:10:57.491Z,6.10
2018-05-06T08:13:25.751Z,7.60
2018-05-06T08:15:54.011Z,6.83
2018-05-06T08:18:22.298Z,6.23
2018-05-06T08:20:50.555Z,4.43
2018-05-06T08:23:18.840Z,3.70
2018-05-06T08:25:47.102Z,2.57
2018-05-06T08:28:15.416Z,3.07
2018-05-06T08:30:45.587Z,2.77
2018-05-06T08:33:13.988Z,3.33
2018-05-06T08:35:42.243Z,4.17
2018-05-06T08:38:11.311Z,2.40
2018-05-06T08:40:39.559Z,2.73
2018-05-06T08:43:07.840Z,2.30
2018-05-06T08:45:36.113Z,2.93
2018-05-06T08:48:04.583Z,1.80
2018-05-06T08:50:32.835Z,2.10
2018-05-06T08:53:01.126Z,2.40
2018-05-06T08:55:29.392Z,2.70
2018-05-06T08:57:57.664Z,2.47
2018-05-06T09:00:25.949Z,5.00
2018-05-06T09:02:54.202Z,2.80
2018-05-06T09:05:23.262Z,2.83
2018-05-06T09:07:51.523Z,4.20
2018-05-06T09:10:19.866Z,2.43
2018-05-06T09:12:48.122Z,2.50
2018-05-06T09:15:16.427Z,2.50
2018-05-06T09:17:44.715Z,3.73
2018-05-06T09:20:13.002Z,2.70
2018-05-06T09:22:41.267Z,2.60
2018-05-06T09:25:09.564Z,2.60
2018-05-06T09:27:37.840Z,3.00
2018-05-06T09:30:06.113Z,2.53
2018-05-06T09:32:34.369Z,3.00
2018-05-06T09:35:02.680Z,2.30
2018-05-06T09:37:30.949Z,2.80
2018-05-06T09:39:59.236Z,4.07
2018-05-06T09:42:27.495Z,2.57
2018-05-06T09:44:55.857Z,2.60
2018-05-06T09:47:24.041Z,2.30
2018-05-06T09:49:52.350Z,3.80
2018-05-06T09:52:20.614Z,2.70
2018-05-06T09:54:48.912Z,1.90
2018-05-06T09:57:17.165Z,2.13
2018-05-06T09:59:46.285Z,2.00
2018-05-06T10:02:14.573Z,2.20
2018-05-06T10:04:42.864Z,2.43
2018-05-06T10:07:11.121Z,2.40
2018-05-06T10:09:39.446Z,2.07
2018-05-06T10:12:08.303Z,3.27
2018-05-06T10:14:36.775Z,2.80
2018-05-06T10:17:05.059Z,3.53
2018-05-06T10:19:33.389Z,2.73
2018-05-06T10:22:01.654Z,3.70
2018-05-06T10:24:30.730Z,2.40
2018-05-06T10:26:59.007Z,2.47
2018-05-06T10:29:27.259Z,2.17
2018-05-06T10:31:55.579Z,2.60
2018-05-06T10:34:23.847Z,2.47
2018-05-06T10:36:52.187Z,2.37
2018-05-06T10:39:20.440Z,3.43
2018-05-06T10:41:48.782Z,2.80
2018-05-06T10:44:17.296Z,3.17
2018-05-06T10:46:46.421Z,2.30
2018-05-06T10:49:14.729Z,2.10
2018-05-06T10:51:43.021Z,2.07
2018-05-06T10:54:11.288Z,3.73
2018-05-06T10:56:39.560Z,2.23
2018-05-06T10:59:07.899Z,3.30
2018-05-06T11:01:36.221Z,2.57
2018-05-06T11:04:04.546Z,1.97
2018-05-06T11:06:32.758Z,2.20
2018-05-06T11:09:01.017Z,2.20
2018-05-06T11:11:29.313Z,2.10
2018-05-06T11:13:57.582Z,2.30
2018-05-06T11:16:25.910Z,2.70
2018-05-06T11:18:54.171Z,2.50
2018-05-06T11:21:22.519Z,2.43
2018-05-06T11:23:50.764Z,2.00
2018-05-06T11:26:19.113Z,4.83
2018-05-06T11:28:47.345Z,5.67
2018-05-06T11:31:15.626Z,4.87
2018-05-06T11:33:43.942Z,6.00
2018-05-06T11:36:12.189Z,11.20
2018-05-06T11:38:40.481Z,9.77
2018-05-06T11:41:08.939Z,5.20
2018-05-06T11:43:37.205Z,3.83
2018-05-06T11:46:05.489Z,3.73
2018-05-06T11:48:33.759Z,5.97
2018-05-06T11:51:02.061Z,7.20
2018-05-06T11:53:30.342Z,3.03
2018-05-06T11:55:58.626Z,4.50
2018-05-06T11:58:26.927Z,6.90
2018-05-06T12:00:56.016Z,9.83
2018-05-06T12:03:24.279Z,6.87
2018-05-06T12:05:52.582Z,5.80
2018-05-06T12:08:20.882Z,8.03
2018-05-06T12:10:49.141Z,5.03
2018-05-06T12:13:17.429Z,5.03
2018-05-06T12:15:46.480Z,6.53
2018-05-06T12:18:14.797Z,4.50
2018-05-06T12:20:44.009Z,4.10
2018-05-06T12:23:12.338Z,4.33
2018-05-06T12:25:40.612Z,3.03
2018-05-06T12:28:08.940Z,3.20
2018-05-06T12:30:38.068Z,3.33
2018-05-06T12:33:08.134Z,2.43
2018-05-06T12:35:36.392Z,2.70
2018-05-06T12:38:04.699Z,2.70
2018-05-06T12:40:33.019Z,2.23
2018-05-06T12:43:01.318Z,2.07
2018-05-06T12:45:29.594Z,1.90
2018-05-06T12:47:57.899Z,1.63
2018-05-06T12:50:26.175Z,1.70
2018-05-06T12:52:55.988Z,2.17
2018-05-06T12:55:24.846Z,2.03
2018-05-06T12:57:53.865Z,1.80
2018-05-06T13:00:22.132Z,2.10
2018-05-06T13:02:50.449Z,2.60
2018-05-06T13:05:18.704Z,2.40
2018-05-06T13:07:47.008Z,2.23
2018-05-06T13:10:16.084Z,1.90
2018-05-06T13:12:44.587Z,1.80
2018-05-06T13:15:13.623Z,2.00
2018-05-06T13:17:41.940Z,2.30
2018-05-06T13:20:10.194Z,1.90
2018-05-06T13:22:38.476Z,1.60
2018-05-06T13:25:07.546Z,2.07
2018-05-06T13:27:35.849Z,2.07
2018-05-06T13:30:04.243Z,1.80
2018-05-06T13:32:32.602Z,1.80
2018-05-06T13:35:00.858Z,2.33
2018-05-06T13:37:29.917Z,2.57
2018-05-06T13:40:00.014Z,2.33
2018-05-06T13:42:29.119Z,1.87
2018-05-06T13:44:57.420Z,1.80
2018-05-06T13:47:26.612Z,1.93
2018-05-06T13:49:54.954Z,2.27
2018-05-06T13:52:23.260Z,1.80
2018-05-06T13:54:51.565Z,1.90
2018-05-06T13:57:19.834Z,2.30
2018-05-06T13:59:48.138Z,1.90
2018-05-06T14:02:16.403Z,2.00
2018-05-06T14:04:44.702Z,1.87
2018-05-06T14:07:13.754Z,2.33
2018-05-06T14:09:42.825Z,1.67
2018-05-06T14:12:11.875Z,1.50
2018-05-06T14:14:40.198Z,1.70
2018-05-06T14:17:08.536Z,1.60
2018-05-06T14:19:36.847Z,1.60
2018-05-06T14:22:05.135Z,1.60
2018-05-06T14:24:33.564Z,2.13
2018-05-06T14:27:01.815Z,1.90
2018-05-06T14:29:30.111Z,2.83
2018-05-06T14:31:58.375Z,1.50
2018-05-06T14:34:26.775Z,1.60
2018-05-06T14:36:55.813Z,1.60
2018-05-06T14:39:25.143Z,2.50
2018-05-06T14:41:58.276Z,2.00
2018-05-06T14:44:28.240Z,2.50
2018-05-06T15:00:26.254Z,1.60
2018-05-06T15:02:56.161Z,1.90
2018-05-06T15:05:24.526Z,1.50
2018-05-06T15:07:55.841Z,1.97
2018-05-06T15:10:24.344Z,1.87
2018-05-06T15:12:52.689Z,2.07
2018-05-06T15:15:20.996Z,4.00
2018-05-06T15:17:49.277Z,2.67
2018-05-06T15:20:18.460Z,1.77
2018-05-06T15:22:46.703Z,1.83
2018-05-06T15:25:15.016Z,1.60
2018-05-06T15:27:43.273Z,2.10
2018-05-06T15:30:11.558Z,1.93
2018-05-06T15:32:39.815Z,1.60
2018-05-06T15:35:08.127Z,1.83
2018-05-06T15:37:36.445Z,2.10
2018-05-06T15:40:04.765Z,2.00
2018-05-06T15:42:33.032Z,1.67
2018-05-06T15:45:01.439Z,2.10
2018-05-06T15:47:30.325Z,1.70
2018-05-06T15:49:59.441Z,2.50
2018-05-06T15:52:29.530Z,1.50
2018-05-06T15:54:59.731Z,2.00
2018-05-06T15:57:28.276Z,1.90
2018-05-06T15:59:56.846Z,2.63
2018-05-06T16:15:58.213Z,1.57
2018-05-06T16:18:26.527Z,1.77
2018-05-06T16:20:55.632Z,1.63
2018-05-06T16:23:23.904Z,1.63
2018-05-06T16:25:52.210Z,1.50
2018-05-06T16:28:21.330Z,1.90
2018-05-06T16:30:49.617Z,2.00
2018-05-06T16:33:17.960Z,2.00
2018-05-06T16:35:46.271Z,1.80
2018-05-06T16:38:14.547Z,2.80
2018-05-06T16:40:42.842Z,1.60
2018-05-06T16:43:11.115Z,1.57
2018-05-06T16:45:40.385Z,1.70
2018-05-06T16:48:09.120Z,1.33
2018-05-06T16:50:38.184Z,1.70
2018-05-06T16:53:06.451Z,1.60
2018-05-06T16:55:34.735Z,1.83
2018-05-06T16:58:03.022Z,2.00
2018-05-06T17:00:31.341Z,2.43
2018-05-06T17:03:00.380Z,2.00
2018-05-06T17:05:28.669Z,2.07
2018-05-06T17:07:56.967Z,1.70
2018-05-06T17:10:25.345Z,3.13
2018-05-06T17:12:53.732Z,1.50
2018-05-06T17:15:21.982Z,1.80
2018-05-06T17:17:50.297Z,1.87
2018-05-06T17:20:18.617Z,1.80
2018-05-06T17:22:46.917Z,1.60
2018-05-06T17:25:15.244Z,1.60
2018-05-06T17:27:44.324Z,1.70
2018-05-06T17:30:13.258Z,1.80
2018-05-06T17:32:43.596Z,2.30
2018-05-06T17:35:12.300Z,1.77
2018-05-06T17:37:40.562Z,1.63
2018-05-06T17:40:09.179Z,1.53
2018-05-06T17:42:37.556Z,2.70
2018-05-06T17:45:06.151Z,1.60
2018-05-06T17:47:34.677Z,1.50
2018-05-06T17:50:03.073Z,1.60
2018-05-06T17:52:32.070Z,1.73
2018-05-06T17:55:00.419Z,2.10
2018-05-06T17:57:31.109Z,1.60
2018-05-06T18:00:01.978Z,2.07
2018-05-06T18:02:32.004Z,1.80
2018-05-06T18:05:01.127Z,4.40
2018-05-06T18:07:31.557Z,2.40
2018-05-06T18:09:59.847Z,1.80
2018-05-06T18:12:28.272Z,1.80
2018-05-06T18:14:57.309Z,1.70
2018-05-06T18:17:25.678Z,1.70
2018-05-06T18:19:54.767Z,1.97
2018-05-06T18:22:24.078Z,2.00
2018-05-06T18:24:52.444Z,8.67
2018-05-06T18:27:20.746Z,3.10
2018-05-06T18:29:49.029Z,2.67
2018-05-06T18:32:17.395Z,2.40
2018-05-06T18:34:45.639Z,2.20
2018-05-06T18:37:14.790Z,4.20
2018-05-06T18:39:43.096Z,2.50
2018-05-06T18:42:11.527Z,1.90
2018-05-06T18:44:40.587Z,2.10
2018-05-06T18:47:08.982Z,2.00
2018-05-06T18:49:38.460Z,1.90
2018-05-06T18:52:06.757Z,2.37
2018-05-06T18:54:35.079Z,2.20
2018-05-06T18:57:03.913Z,1.83
2018-05-06T18:59:32.235Z,3.97
2018-05-06T19:02:00.604Z,2.50
2018-05-06T19:04:29.760Z,2.27
2018-05-06T19:06:58.227Z,2.27
2018-05-06T19:09:29.624Z,3.27
2018-05-06T19:11:59.521Z,2.07
2018-05-06T19:14:27.805Z,2.40
2018-05-06T19:16:57.303Z,2.07
2018-05-06T19:19:25.671Z,2.60
2018-05-06T19:21:54.069Z,2.37
2018-05-06T19:24:22.501Z,2.30
2018-05-06T19:26:50.871Z,2.40
2018-05-06T19:29:19.218Z,2.57
2018-05-06T19:31:47.543Z,5.60
2018-05-06T19:34:15.918Z,2.60
2018-05-06T19:36:44.298Z,2.23
2018-05-06T19:39:12.628Z,2.73
2018-05-06T19:41:41.037Z,2.37
2018-05-06T19:44:09.393Z,2.30
2018-05-06T19:46:37.711Z,2.10
2018-05-06T19:49:06.919Z,2.70
2018-05-06T19:51:35.257Z,2.23
2018-05-06T19:54:04.386Z,2.70
2018-05-06T19:56:32.744Z,2.60
2018-05-06T19:59:01.099Z,2.30
2018-05-06T20:01:29.358Z,2.90
2018-05-06T20:03:57.811Z,5.73
2018-05-06T20:06:26.117Z,2.33
2018-05-06T20:08:54.458Z,2.60
2018-05-06T20:11:22.804Z,2.90
2018-05-06T20:13:51.098Z,2.60
2018-05-06T20:16:20.153Z,3.00
2018-05-06T20:18:49.233Z,2.23
2018-05-06T20:21:17.508Z,3.27
2018-05-06T20:23:46.068Z,2.83
2018-05-06T20:26:15.122Z,3.03
2018-05-06T20:28:43.673Z,2.57
2018-05-06T20:31:11.930Z,3.30
2018-05-06T20:33:40.309Z,2.87
2018-05-06T20:36:09.670Z,6.07
2018-05-06T20:38:37.987Z,2.93
2018-05-06T20:41:07.880Z,2.67
2018-05-06T20:43:36.373Z,3.67
2018-05-06T20:46:05.477Z,3.17
2018-05-06T20:48:33.807Z,2.80
2018-05-06T20:51:02.122Z,2.70
2018-05-06T20:53:30.418Z,3.03
2018-05-06T20:55:58.758Z,2.80
2018-05-06T20:58:27.039Z,4.60
2018-05-06T21:00:55.362Z,3.03
2018-05-06T21:03:23.642Z,2.97
2018-05-06T21:05:51.932Z,2.90
2018-05-06T21:08:20.223Z,6.43
2018-05-06T21:10:48.503Z,3.30
2018-05-06T21:13:16.806Z,3.23
2018-05-06T21:15:45.106Z,3.37
2018-05-06T21:18:13.427Z,3.37
2018-05-06T21:20:41.713Z,2.90
2018-05-06T21:23:09.976Z,3.53
2018-05-06T21:25:38.329Z,4.03
2018-05-06T21:28:06.741Z,3.63
2018-05-06T21:30:35.064Z,4.00
2018-05-06T21:33:03.406Z,3.70
2018-05-06T21:35:32.641Z,3.80
2018-05-06T21:38:00.940Z,3.33
2018-05-06T21:40:29.971Z,3.80
2018-05-06T21:42:58.270Z,3.30
2018-05-06T21:45:26.659Z,3.53
2018-05-06T21:47:54.924Z,3.40
2018-05-06T21:50:23.774Z,3.70
2018-05-06T21:52:51.935Z,3.77
2018-05-06T21:57:53.723Z,3.70
2018-05-06T22:00:27.830Z,4.03
2018-05-06T22:02:56.186Z,4.07
2018-05-06T22:05:24.443Z,3.60
2018-05-06T22:07:52.736Z,3.40
2018-05-06T22:10:21.040Z,3.70
2018-05-06T22:12:49.493Z,3.60
2018-05-06T22:15:21.648Z,3.67
2018-05-06T22:17:49.948Z,4.00
2018-05-06T22:20:18.941Z,3.93
2018-05-06T22:22:47.267Z,4.57
2018-05-06T22:25:15.547Z,3.80
2018-05-06T22:27:46.743Z,4.50
2018-05-06T22:30:15.023Z,3.90
2018-05-06T22:32:43.360Z,3.80
2018-05-06T22:35:15.828Z,4.20
2018-05-06T22:37:44.174Z,4.13
2018-05-06T22:40:12.520Z,4.10
2018-05-06T22:42:40.760Z,4.60
2018-05-06T22:45:09.056Z,4.10
2018-05-06T22:47:37.316Z,4.70
2018-05-06T22:50:06.089Z,3.47
2018-05-06T22:52:34.382Z,3.23
2018-05-06T22:55:02.712Z,4.60
2018-05-06T22:57:31.006Z,3.67
2018-05-06T22:59:59.253Z,3.37
2018-05-06T23:02:27.562Z,3.67
2018-05-06T23:04:57.510Z,3.70
2018-05-06T23:07:25.804Z,3.57
2018-05-06T23:09:54.064Z,5.13
2018-05-06T23:12:22.358Z,4.60
2018-05-06T23:14:50.702Z,4.20
2018-05-06T23:17:19.806Z,4.80
2018-05-06T23:19:48.860Z,5.87
2018-05-06T23:22:17.166Z,4.73
2018-05-06T23:24:45.489Z,4.37
2018-05-06T23:27:13.761Z,4.37
2018-05-06T23:29:42.019Z,3.50
2018-05-06T23:32:10.331Z,3.53
2018-05-06T23:34:38.594Z,3.50
2018-05-06T23:37:06.877Z,3.87
2018-05-06T23:39:35.127Z,3.77
2018-05-06T23:42:03.421Z,4.20
2018-05-06T23:44:31.715Z,4.30
2018-05-06T23:46:59.956Z,5.17
2018-05-06T23:49:29.029Z,4.70
2018-05-06T23:51:57.311Z,4.33
2018-05-06T23:54:25.605Z,4.50
2018-05-06T23:56:53.851Z,4.00
2018-05-06T23:59:22.126Z,4.07
